Terminal Aerodrome Forecast
Issued by NWS

Home | Current Version | Previous Version | Text Only | Print | Product List | Glossary On
Versions: 1 2 3 4 5 6 7 8 9 10 11 12 13 14 15 16 17
000
FTUS45 KBOI 251736
TAFBKE
TAF
KBKE 251736Z 2518/2618 12015G25KT P6SM BKN150
     FM252100 14020G30KT P6SM BKN080
     FM260300 12015G25KT P6SM VCSH BKN060
     FM260900 23012KT P6SM -SHRA OVC040
     FM261500 29006KT P6SM VCSH SCT050=

USA.gov is the U.S. government's official web portal to all federal, state and local government web resources and services.